Time;durP1;ratioP1;P1;durP2;ratioP2;P2;SDS_P1;SDS_P2;PMS_P1;PMS_P2;Temp;Humidity;BMP_temperature;BMP_pressure;BME280_temperature;BME280_humidity;BME280_pressure;Samples;Min_cycle;Max_cycle;Signal;HPM_P1;HPM_P2
2023/04/20 00:02:21;;;;;;;3.03;2.50;;;11.90;44.70;;;14.19;37.53;102230.47;5034738;28;20195;-60
2023/04/20 00:04:48;;;;;;;4.00;2.83;;;11.90;44.70;;;14.20;37.46;102220.72;5033803;28;20225;-62
2023/04/20 00:07:15;;;;;;;3.63;2.60;;;11.90;44.80;;;14.12;38.71;102212.75;5034480;28;20193;-60
2023/04/20 00:09:42;;;;;;;2.47;2.23;;;11.80;46.10;;;14.03;38.77;102221.66;5034051;28;20191;-59
2023/04/20 00:12:09;;;;;;;3.40;2.50;;;11.80;46.40;;;13.96;39.84;102212.69;5034188;28;20248;-66
2023/04/20 00:14:36;;;;;;;3.40;2.67;;;11.70;47.60;;;13.78;41.58;102217.25;5032643;28;20222;-60
2023/04/20 00:17:03;;;;;;;4.57;2.63;;;11.60;49.90;;;13.61;42.34;102212.88;5034409;28;20507;-58
2023/04/20 00:19:32;;;;;;;4.83;3.00;;;11.60;50.70;;;13.61;42.44;102207.59;5033716;28;20257;-62
2023/04/20 00:21:59;;;;;;;3.23;2.93;;;11.50;51.40;;;13.55;42.47;102220.44;5034618;28;20563;-60
2023/04/20 00:24:26;;;;;;;3.67;2.40;;;11.40;51.80;;;13.53;42.33;102211.00;5035495;28;20554;-63
2023/04/20 00:26:54;;;;;;;3.13;2.77;;;11.40;51.70;;;13.46;42.54;102216.09;5035758;28;20202;-61
2023/04/20 00:29:21;;;;;;;3.07;2.60;;;11.30;52.40;;;13.41;42.96;102215.75;5035672;28;20198;-62
2023/04/20 00:31:48;;;;;;;2.63;2.43;;;11.30;53.00;;;13.46;43.07;102213.47;5033965;28;20194;-62
2023/04/20 00:34:15;;;;;;;3.30;2.60;;;11.20;53.60;;;13.52;42.96;102218.13;5032762;28;20275;-62
2023/04/20 00:36:43;;;;;;;3.37;2.30;;;11.20;53.80;;;13.63;42.77;102226.78;5033682;28;20221;-61
2023/04/20 00:39:10;;;;;;;4.13;2.80;;;11.20;54.40;;;13.61;43.49;102223.44;5033399;28;20632;-60
2023/04/20 00:41:37;;;;;;;3.53;2.40;;;11.10;55.30;;;13.52;44.19;102215.50;5033879;28;20208;-61
2023/04/20 00:44:07;;;;;;;3.37;2.57;;;11.10;56.60;;;13.38;44.96;102213.41;5032932;28;20317;-62
2023/04/20 00:46:34;;;;;;;2.80;2.60;;;11.00;57.30;;;13.22;45.32;102213.31;5033817;28;20663;-62
2023/04/20 00:49:01;;;;;;;3.97;3.10;;;11.00;57.90;;;13.16;45.88;102203.38;5033765;28;20237;-62
2023/04/20 00:51:29;;;;;;;3.13;2.57;;;10.90;58.50;;;13.06;45.78;102207.91;5033490;28;20222;-61
2023/04/20 00:53:58;;;;;;;4.10;2.40;;;10.80;58.60;;;13.11;46.11;102204.81;5032946;28;20225;-62
2023/04/20 00:56:25;;;;;;;3.23;2.60;;;10.80;59.30;;;13.01;45.88;102199.56;5034910;28;20245;-62
2023/04/20 00:58:52;;;;;;;3.20;2.73;;;10.70;59.40;;;13.03;46.29;102191.47;5035366;28;20216;-60
2023/04/20 01:01:19;;;;;;;2.57;2.37;;;10.70;59.90;;;13.06;46.26;102189.41;5033974;28;20195;-61
2023/04/20 01:03:46;;;;;;;5.03;3.27;;;10.60;60.00;;;13.13;46.18;102181.69;5033016;28;20563;-61
2023/04/20 01:06:14;;;;;;;6.40;3.00;;;10.60;60.30;;;13.15;45.81;102172.63;5033508;28;20214;-60
2023/04/20 01:08:49;;;;;;;2.70;2.50;;;10.60;60.20;;;13.17;45.67;102156.63;5033452;28;20187;-59
2023/04/20 01:11:17;;;;;;;4.43;2.83;;;10.60;60.20;;;13.22;45.65;102155.13;5034609;28;20198;-60
2023/04/20 01:13:44;;;;;;;2.80;2.40;;;10.60;60.20;;;13.27;45.20;102147.56;5036861;28;20195;-61
2023/04/20 01:16:12;;;;;;;3.87;2.60;;;10.60;60.30;;;13.28;45.03;102154.53;5037521;28;20202;-62
2023/04/20 01:18:43;;;;;;;3.27;2.43;;;10.70;60.50;;;13.22;45.24;102154.31;5037200;28;20210;-61
2023/04/20 01:21:11;;;;;;;3.20;2.90;;;10.60;60.10;;;13.21;45.43;102145.56;5046361;28;20191;-59
2023/04/20 01:23:39;;;;;;;3.43;2.63;;;10.60;60.20;;;13.26;45.10;102135.34;5035699;28;20190;-61
2023/04/20 01:26:08;;;;;;;5.53;3.13;;;10.60;60.10;;;13.34;44.99;102143.31;5032941;28;20195;-62
2023/04/20 01:28:36;;;;;;;3.47;2.30;;;10.60;60.20;;;13.37;44.79;102136.88;5037541;28;20260;-58
2023/04/20 01:31:04;;;;;;;5.70;2.67;;;10.70;59.90;;;13.35;44.33;102134.41;5037622;28;20554;-60
2023/04/20 01:33:31;;;;;;;4.33;2.90;;;10.70;59.50;;;13.34;44.25;102127.44;5037405;28;20663;-61
2023/04/20 01:35:58;;;;;;;3.70;2.80;;;10.70;59.00;;;13.36;44.31;102125.47;5037504;28;20703;-61
2023/04/20 01:38:26;;;;;;;6.87;2.30;;;10.70;59.10;;;13.42;44.10;102126.66;5037381;28;20211;-62
2023/04/20 01:40:54;;;;;;;3.23;2.50;;;10.70;59.00;;;13.47;43.66;102124.38;5037819;28;20544;-62
2023/04/20 01:43:23;;;;;;;4.93;2.90;;;10.70;58.60;;;13.50;43.56;102111.63;5037829;28;20206;-60
2023/04/20 01:45:50;;;;;;;3.00;2.20;;;10.80;59.20;;;13.53;43.46;102113.97;5038258;28;20237;-61
2023/04/20 01:48:18;;;;;;;3.03;2.33;;;10.80;58.20;;;13.60;43.09;102102.75;5037107;28;20290;-60
2023/04/20 01:50:45;;;;;;;4.60;2.20;;;10.80;58.00;;;13.66;42.80;102099.47;5037849;28;20656;-63
2023/04/20 01:53:12;;;;;;;3.37;2.10;;;10.90;57.60;;;13.70;42.60;102106.91;5036725;28;20194;-61
2023/04/20 01:55:40;;;;;;;2.30;2.10;;;10.90;57.20;;;13.66;42.21;102104.75;5036691;28;20211;-62
2023/04/20 01:58:08;;;;;;;3.30;2.30;;;10.90;56.70;;;13.61;42.15;102101.75;5036411;28;20221;-61
2023/04/20 02:00:35;;;;;;;5.10;2.20;;;11.00;56.40;;;13.62;42.11;102098.13;5036606;28;20191;-61
2023/04/20 02:03:02;;;;;;;5.10;2.40;;;11.00;56.30;;;13.54;41.79;102097.13;5036198;28;20220;-60
2023/04/20 02:05:29;;;;;;;3.80;2.00;;;11.00;55.90;;;13.58;41.88;102093.16;5036088;28;20214;-60
2023/04/20 02:07:56;;;;;;;3.53;2.40;;;10.90;55.80;;;13.58;41.78;102081.75;5036867;28;20191;-60
2023/04/20 02:10:23;;;;;;;3.20;2.30;;;10.90;55.80;;;13.57;41.55;102086.19;5036515;28;20190;-60
2023/04/20 02:12:50;;;;;;;3.33;2.10;;;10.90;55.50;;;13.62;41.55;102082.25;5035421;28;20202;-61
2023/04/20 02:15:18;;;;;;;3.33;2.47;;;11.00;55.60;;;13.65;41.47;102073.97;5035865;28;20223;-60
2023/04/20 02:17:50;;;;;;;3.37;2.10;;;11.00;55.50;;;13.57;41.24;102080.91;5036476;28;20207;-60
2023/04/20 02:20:19;;;;;;;5.10;2.40;;;11.00;55.20;;;13.52;41.54;102080.59;5036496;28;20198;-62
2023/04/20 02:22:46;;;;;;;4.90;2.20;;;11.00;55.20;;;13.48;41.45;102076.59;5034519;28;20191;-60
2023/04/20 02:25:14;;;;;;;3.17;2.47;;;11.00;55.10;;;13.43;41.37;102076.22;5035625;28;20230;-60
2023/04/20 02:27:41;;;;;;;3.83;2.60;;;10.90;55.20;;;13.36;42.04;102085.78;5035759;28;20201;-60
2023/04/20 02:30:09;;;;;;;4.87;1.97;;;10.90;55.40;;;13.34;42.27;102085.13;5035978;28;20201;-60
2023/04/20 02:32:38;;;;;;;3.70;2.40;;;10.90;55.70;;;13.32;42.26;102081.81;5036440;28;20193;-62
2023/04/20 02:35:06;;;;;;;3.07;2.50;;;10.80;56.00;;;13.31;42.63;102085.44;5035548;28;20622;-61
2023/04/20 02:37:33;;;;;;;7.47;3.00;;;10.80;56.40;;;13.20;43.25;102085.72;5036097;28;20206;-60
2023/04/20 02:40:00;;;;;;;4.73;2.53;;;10.80;56.90;;;13.05;43.60;102078.53;5034627;28;20325;-60
2023/04/20 02:42:28;;;;;;;3.07;2.53;;;10.80;57.10;;;12.95;43.67;102077.81;5035742;28;20547;-60
2023/04/20 02:44:55;;;;;;;2.77;2.40;;;10.70;57.40;;;12.98;43.78;102077.50;5034955;28;20233;-59
2023/04/20 02:47:22;;;;;;;3.87;2.13;;;10.70;57.70;;;13.02;44.30;102071.75;5035337;28;20190;-60
2023/04/20 02:49:50;;;;;;;7.50;3.03;;;10.60;57.80;;;13.02;44.14;102061.16;5035867;28;20217;-61
2023/04/20 02:52:17;;;;;;;3.10;2.40;;;10.60;58.00;;;12.97;44.19;102057.31;5035754;28;20197;-60
2023/04/20 02:54:44;;;;;;;3.57;2.60;;;10.60;58.20;;;12.96;44.43;102063.59;5035138;28;20627;-60
2023/04/20 02:57:11;;;;;;;7.13;3.13;;;10.50;58.30;;;12.92;44.43;102068.38;5035235;28;20214;-61
2023/04/20 02:59:38;;;;;;;4.30;2.70;;;10.50;58.60;;;12.90;44.33;102071.19;5035135;28;20267;-61
2023/04/20 03:02:05;;;;;;;4.60;2.40;;;10.50;58.70;;;12.91;44.56;102067.53;5033904;28;20206;-60
2023/04/20 03:04:32;;;;;;;3.90;2.63;;;10.50;58.90;;;12.85;44.96;102062.06;5035128;28;20218;-61
2023/04/20 03:07:00;;;;;;;3.87;2.80;;;10.40;59.00;;;12.85;45.21;102062.06;5035381;28;20206;-59
2023/04/20 03:09:27;;;;;;;2.70;2.33;;;10.40;59.20;;;12.85;44.71;102062.06;5035156;28;20200;-60
2023/04/20 03:11:54;;;;;;;6.97;3.10;;;10.40;59.30;;;12.91;44.75;102072.81;5035187;28;20195;-62
2023/04/20 03:14:21;;;;;;;3.93;2.50;;;10.40;59.20;;;12.98;44.76;102067.72;5034571;28;20210;-61
2023/04/20 03:16:48;;;;;;;4.47;3.07;;;10.40;59.40;;;13.01;44.75;102075.34;5050539;28;20655;-60
2023/04/20 03:19:15;;;;;;;4.53;2.40;;;10.40;59.50;;;12.99;44.53;102069.41;5034858;28;20555;-60
2023/04/20 03:21:44;;;;;;;3.37;2.83;;;10.40;59.60;;;13.04;44.54;102072.41;5046507;28;20199;-62
2023/04/20 03:24:13;;;;;;;3.13;2.40;;;10.40;59.40;;;13.08;44.53;102065.00;5033401;28;20225;-63
2023/04/20 03:26:40;;;;;;;4.90;2.97;;;10.40;59.40;;;13.13;44.72;102066.19;5035043;28;20203;-61
2023/04/20 03:29:07;;;;;;;5.60;2.53;;;10.40;59.50;;;13.23;44.40;102056.34;5035099;28;20240;-61
2023/04/20 03:31:34;;;;;;;5.90;2.60;;;10.50;59.60;;;13.33;44.11;102061.50;5034822;28;20667;-60
2023/04/20 03:34:01;;;;;;;5.40;2.80;;;10.50;59.50;;;13.36;44.89;102058.53;5034354;28;20247;-61
2023/04/20 03:36:28;;;;;;;3.67;2.40;;;10.60;60.50;;;13.25;44.95;102056.16;5034302;28;20202;-61
2023/04/20 03:38:54;;;;;;;3.50;2.27;;;10.60;60.60;;;13.24;45.29;102062.47;5034205;28;20221;-61
2023/04/20 03:41:23;;;;;;;4.67;2.50;;;10.60;60.50;;;13.26;44.97;102049.91;5034024;28;20194;-60
2023/04/20 03:43:50;;;;;;;4.43;2.40;;;10.60;60.20;;;13.26;44.99;102050.75;5034616;28;20209;-61
2023/04/20 03:46:17;;;;;;;3.43;2.63;;;10.60;60.20;;;13.30;44.91;102041.50;5035010;28;20273;-61
2023/04/20 03:48:44;;;;;;;8.50;3.03;;;10.60;60.40;;;13.37;44.83;102052.25;5035216;28;20191;-61
2023/04/20 03:51:11;;;;;;;7.50;2.73;;;10.60;60.40;;;13.41;44.95;102051.75;5033933;28;20194;-62
2023/04/20 03:53:39;;;;;;;5.57;2.63;;;10.60;60.70;;;13.44;44.87;102054.09;5033744;28;20198;-59
2023/04/20 03:56:06;;;;;;;5.73;2.57;;;10.60;60.80;;;13.43;45.16;102052.44;5034777;28;20191;-62
2023/04/20 03:58:35;;;;;;;5.93;3.23;;;10.70;61.50;;;13.44;45.29;102054.09;5034361;28;20581;-62
2023/04/20 04:01:05;;;;;;;4.37;3.13;;;10.70;61.60;;;13.41;46.13;102054.41;5033429;28;20198;-62
2023/04/20 04:03:33;;;;;;;5.10;2.40;;;10.70;62.60;;;13.42;45.95;102056.06;5033853;28;20187;-62
2023/04/20 04:06:01;;;;;;;3.30;2.80;;;10.70;62.30;;;13.41;46.54;102056.22;5032687;28;20251;-59
2023/04/20 04:08:28;;;;;;;5.60;2.73;;;10.70;63.40;;;13.38;46.71;102059.22;5034050;28;20187;-63
2023/04/20 04:10:56;;;;;;;3.30;2.63;;;10.70;63.70;;;13.37;46.80;102052.25;5033346;28;20194;-62
2023/04/20 04:13:23;;;;;;;3.50;2.23;;;10.70;63.80;;;13.39;46.70;102050.25;5033502;28;20191;-64
2023/04/20 04:15:51;;;;;;;4.27;2.63;;;10.70;63.90;;;13.37;47.19;102047.78;5034008;28;20583;-61
2023/04/20 04:18:19;;;;;;;6.43;3.13;;;10.70;64.30;;;13.35;47.47;102049.78;5033797;28;20214;-62
2023/04/20 04:20:46;;;;;;;5.60;2.93;;;10.60;64.70;;;13.36;47.20;102045.31;5033942;28;20194;-65
2023/04/20 04:23:14;;;;;;;3.90;2.77;;;10.60;65.00;;;13.36;47.47;102046.13;5033477;28;20555;-61
2023/04/20 04:25:41;;;;;;;6.50;3.57;;;10.60;65.10;;;13.39;47.76;102055.56;5032747;28;20622;-63
2023/04/20 04:28:08;;;;;;;4.20;2.67;;;10.60;65.80;;;13.38;47.53;102053.91;5033543;28;20191;-61
2023/04/20 04:30:35;;;;;;;7.23;3.30;;;10.60;65.30;;;13.39;47.64;102053.75;5033663;28;20203;-59
2023/04/20 04:33:03;;;;;;;7.00;3.27;;;10.60;65.60;;;13.42;47.67;102053.44;5033612;28;20260;-63
2023/04/20 04:35:32;;;;;;;3.30;2.83;;;10.60;66.50;;;13.45;48.10;102066.31;5033412;28;20238;-65
2023/04/20 04:37:59;;;;;;;3.67;2.50;;;10.60;66.20;;;13.47;47.71;102058.25;5033358;28;20312;-61
2023/04/20 04:40:26;;;;;;;5.50;3.00;;;10.60;66.10;;;13.46;47.90;102062.69;5034065;28;20614;-62
2023/04/20 04:42:54;;;;;;;3.03;2.70;;;10.60;66.30;;;13.46;48.03;102062.69;5037002;28;20201;-62
2023/04/20 04:45:24;;;;;;;3.60;2.90;;;10.60;66.40;;;13.47;48.21;102063.53;5035520;28;20297;-63
2023/04/20 04:47:52;;;;;;;5.07;2.83;;;10.60;67.40;;;13.49;47.93;102062.38;5034466;28;20194;-60
2023/04/20 04:50:21;;;;;;;3.57;2.60;;;10.60;66.60;;;13.52;47.87;102067.34;5032089;28;20214;-61
2023/04/20 04:52:48;;;;;;;5.20;3.23;;;10.70;66.70;;;13.52;47.96;102059.44;5032541;28;20186;-61
2023/04/20 04:55:15;;;;;;;3.80;2.83;;;10.70;66.80;;;13.58;48.08;102064.06;5033485;28;20672;-63
2023/04/20 04:57:42;;;;;;;7.33;2.73;;;10.70;66.80;;;13.60;47.86;102057.78;5033430;28;20245;-63
2023/04/20 05:00:11;;;;;;;4.77;3.00;;;10.70;66.40;;;13.59;48.12;102056.94;5033342;28;20194;-62
2023/04/20 05:02:38;;;;;;;7.37;2.80;;;10.80;66.70;;;13.57;47.83;102059.75;5033563;28;20186;-61
2023/04/20 05:05:07;;;;;;;4.17;3.00;;;10.70;66.20;;;13.60;47.85;102053.31;5033172;28;20214;-63
2023/04/20 05:07:38;;;;;;;5.90;3.43;;;10.70;66.40;;;13.63;47.89;102057.44;5033456;28;20213;-63
2023/04/20 05:10:07;;;;;;;4.90;2.90;;;10.80;66.70;;;13.65;47.71;102058.94;5032756;28;20183;-63
2023/04/20 05:12:35;;;;;;;5.30;2.83;;;10.80;66.30;;;13.66;47.88;102057.13;5033190;28;20600;-64
2023/04/20 05:15:02;;;;;;;6.70;3.23;;;10.80;66.30;;;13.62;47.60;102064.53;5032879;28;20226;-63
2023/04/20 05:17:30;;;;;;;4.60;3.00;;;10.80;66.30;;;13.54;48.04;102064.53;5032191;28;20655;-62
2023/04/20 05:19:57;;;;;;;5.73;3.67;;;10.80;66.20;;;13.51;48.14;102070.97;5032976;28;20210;-64
2023/04/20 05:22:24;;;;;;;6.00;3.43;;;10.70;66.30;;;13.49;48.18;102070.31;5033318;28;20186;-60
2023/04/20 05:24:52;;;;;;;5.87;3.43;;;10.70;66.70;;;13.44;48.35;102075.25;5032198;28;20213;-62
2023/04/20 05:27:19;;;;;;;4.43;2.83;;;10.70;66.60;;;13.43;48.41;102070.94;5034474;28;20194;-61
2023/04/20 05:29:46;;;;;;;3.60;3.17;;;10.70;66.80;;;13.40;48.41;102066.00;5048976;28;20190;-61
2023/04/20 05:32:13;;;;;;;6.73;3.07;;;10.70;66.60;;;13.27;48.28;102068.25;5033035;28;20206;-62
2023/04/20 05:34:40;;;;;;;5.50;3.63;;;10.60;66.50;;;13.22;48.65;102070.53;5032595;28;20253;-63
2023/04/20 05:37:08;;;;;;;6.03;3.13;;;10.60;66.70;;;13.25;48.87;102074.69;5032926;28;20191;-63
2023/04/20 05:39:35;;;;;;;5.80;3.33;;;10.60;67.50;;;13.26;48.93;102069.25;5032745;28;20321;-62
2023/04/20 05:42:03;;;;;;;8.23;4.00;;;10.50;67.30;;;13.26;48.89;102077.19;5032835;28;20198;-63
2023/04/20 05:44:30;;;;;;;6.90;3.80;;;10.50;67.60;;;13.25;49.12;102067.56;5032371;28;20237;-62
2023/04/20 05:46:57;;;;;;;7.17;3.33;;;10.50;68.00;;;13.24;48.94;102079.13;5033044;28;20190;-61
2023/04/20 05:49:26;;;;;;;7.40;3.60;;;10.50;67.80;;;13.21;49.22;102068.88;5032368;28;20201;-62
2023/04/20 05:51:53;;;;;;;5.77;3.07;;;10.50;68.20;;;13.25;49.38;102061.44;5032460;28;20195;-62
2023/04/20 05:54:21;;;;;;;6.90;3.37;;;10.50;68.60;;;13.26;49.33;102066.59;5032559;28;20233;-61
2023/04/20 05:56:48;;;;;;;6.13;3.40;;;10.50;68.60;;;13.27;49.67;102075.34;5031887;28;20606;-62
2023/04/20 05:59:17;;;;;;;5.23;3.57;;;10.50;68.70;;;13.28;49.76;102075.19;5034375;28;20305;-62
2023/04/20 06:01:44;;;;;;;6.43;3.70;;;10.50;68.60;;;13.33;49.42;102077.38;5036277;28;20198;-63
2023/04/20 06:04:11;;;;;;;9.50;5.67;;;10.50;69.70;;;13.39;49.31;102077.53;5034475;28;20715;-63
2023/04/20 06:06:39;;;;;;;6.13;3.90;;;10.60;69.00;;;13.42;49.34;102079.88;5036113;28;20202;-60
2023/04/20 06:09:06;;;;;;;5.70;4.07;;;10.60;69.10;;;13.43;49.31;102081.53;5035842;28;20252;-61
2023/04/20 06:11:33;;;;;;;5.70;4.10;;;10.60;68.90;;;13.41;49.33;102075.56;5035436;28;20198;-61
2023/04/20 06:14:00;;;;;;;5.30;3.70;;;10.60;68.90;;;13.44;49.53;102085.84;5034031;28;20679;-61
2023/04/20 06:16:29;;;;;;;5.97;3.73;;;10.60;69.20;;;13.43;49.78;102081.53;5034910;28;20206;-62
2023/04/20 06:18:56;;;;;;;8.07;3.67;;;10.60;69.20;;;13.43;49.78;102078.88;5036239;28;20583;-60
2023/04/20 06:21:23;;;;;;;5.07;3.10;;;10.60;69.20;;;13.52;49.57;102074.47;5035469;28;20214;-62
2023/04/20 06:23:50;;;;;;;6.40;3.97;;;10.70;69.40;;;13.58;49.71;102077.28;5035704;28;20202;-62
2023/04/20 06:26:17;;;;;;;6.90;4.40;;;10.70;69.50;;;13.71;49.47;102068.06;5034760;28;20608;-63
2023/04/20 06:28:46;;;;;;;8.03;4.03;;;10.80;69.70;;;13.85;49.18;102070.06;5033813;28;20268;-63
2023/04/20 06:31:13;;;;;;;5.47;4.27;;;10.80;69.60;;;13.94;48.72;102069.09;5033700;28;20273;-65
2023/04/20 06:33:41;;;;;;;4.40;3.73;;;10.90;69.20;;;13.93;48.77;102070.09;5035070;28;20190;-64
2023/04/20 06:36:08;;;;;;;5.40;3.47;;;10.90;68.80;;;13.91;48.83;102070.25;5035396;28;20194;-62
2023/04/20 06:38:35;;;;;;;4.87;3.60;;;11.00;68.90;;;13.96;49.05;102075.03;5034701;28;20211;-62
2023/04/20 06:41:02;;;;;;;5.60;4.03;;;11.00;69.10;;;13.98;48.80;102073.88;5047262;28;20275;-62
2023/04/20 06:43:35;;;;;;;9.80;4.70;;;11.00;68.70;;;13.99;49.00;102082.66;5028749;28;20290;-64
2023/04/20 06:46:02;;;;;;;22.93;15.80;;;11.10;68.80;;;13.97;49.02;102076.72;5035093;28;20206;-61
2023/04/20 06:48:30;;;;;;;8.10;4.93;;;11.10;68.60;;;14.01;48.82;102072.72;5035364;28;20205;-65
2023/04/20 06:51:00;;;;;;;6.80;4.33;;;11.10;68.80;;;14.06;48.91;102075.72;5034720;28;20632;-62
2023/04/20 06:53:27;;;;;;;8.40;4.33;;;11.10;68.80;;;14.13;49.11;102082.00;5034904;28;20209;-63
2023/04/20 06:55:55;;;;;;;7.37;4.17;;;11.20;69.10;;;14.13;48.91;102082.00;5034882;28;20210;-61
2023/04/20 06:58:22;;;;;;;7.10;5.00;;;11.20;69.10;;;14.02;48.81;102080.53;5033217;28;20194;-62
2023/04/20 07:00:49;;;;;;;7.20;4.70;;;11.20;68.70;;;14.05;49.04;102074.06;5034235;28;20197;-61
2023/04/20 07:03:17;;;;;;;6.97;4.40;;;11.20;69.00;;;14.04;49.11;102077.72;5034531;28;20232;-63
2023/04/20 07:05:45;;;;;;;5.90;4.10;;;11.20;68.90;;;14.09;49.13;102072.75;5034333;28;20222;-62
2023/04/20 07:08:14;;;;;;;9.13;4.60;;;11.20;69.10;;;14.11;49.05;102073.41;5034549;28;20202;-62
2023/04/20 07:10:42;;;;;;;6.20;4.53;;;11.20;69.10;;;14.13;49.00;102072.25;5034809;28;20203;-64
2023/04/20 07:13:09;;;;;;;7.13;4.53;;;11.20;69.10;;;14.03;49.18;102070.75;5035653;28;20555;-63
2023/04/20 07:15:36;;;;;;;9.00;4.90;;;11.20;68.80;;;13.89;49.36;102074.88;5034349;28;20219;-60
2023/04/20 07:18:04;;;;;;;7.27;4.87;;;11.20;68.80;;;13.79;49.57;102063.59;5033791;28;20317;-62
2023/04/20 07:20:31;;;;;;;8.97;5.20;;;11.20;68.90;;;13.84;49.83;102081.63;5035247;28;20237;-61
2023/04/20 07:22:58;;;;;;;5.87;4.77;;;11.10;69.20;;;13.84;49.60;102071.88;5033836;28;20190;-65
2023/04/20 07:25:26;;;;;;;9.83;5.13;;;11.10;69.30;;;13.91;49.69;102072.88;5034220;28;20225;-61
2023/04/20 07:27:53;;;;;;;8.80;4.63;;;11.10;69.70;;;13.93;49.44;102065.59;5034241;28;20564;-61
2023/04/20 07:30:20;;;;;;;7.17;5.03;;;11.20;69.50;;;13.94;49.53;102063.78;5033102;28;20648;-62
2023/04/20 07:32:48;;;;;;;11.30;4.97;;;11.10;69.40;;;13.84;49.91;102066.59;5034555;28;20258;-61
2023/04/20 07:35:15;;;;;;;8.53;5.50;;;11.10;69.40;;;13.74;50.15;102065.91;5033722;28;20218;-61
2023/04/20 07:37:42;;;;;;;8.73;5.30;;;11.10;69.70;;;13.77;50.20;102060.28;5034477;28;20221;-61
2023/04/20 07:40:10;;;;;;;9.47;4.70;;;11.10;69.80;;;13.78;50.22;102071.72;5034428;28;20702;-62
2023/04/20 07:42:45;;;;;;;7.20;4.70;;;11.10;70.10;;;13.81;50.26;102066.09;5034490;28;20550;-62
2023/04/20 07:45:12;;;;;;;8.70;4.87;;;11.10;70.20;;;13.86;50.42;102069.91;5034256;28;20222;-64
2023/04/20 07:47:40;;;;;;;6.13;4.97;;;11.10;70.60;;;13.90;50.35;102073.91;5033564;28;20202;-69
2023/04/20 07:50:07;;;;;;;13.40;5.20;;;11.20;71.20;;;13.99;50.09;102078.19;5032570;28;20206;-61
2023/04/20 07:52:34;;;;;;;8.57;4.83;;;11.20;70.40;;;13.97;49.98;102082.00;5049603;28;20198;-62
2023/04/20 07:55:01;;;;;;;7.70;5.10;;;11.20;70.10;;;13.90;50.12;102076.53;5033864;28;20320;-63
2023/04/20 07:57:30;;;;;;;9.20;4.50;;;11.20;70.10;;;13.87;50.23;102078.66;5034324;28;20187;-63
2023/04/20 07:59:58;;;;;;;8.77;5.00;;;11.20;70.10;;;13.85;50.16;102083.31;5033991;28;20646;-59
2023/04/20 08:02:25;;;;;;;9.63;5.80;;;11.20;70.20;;;13.82;50.36;102089.75;5032700;28;20202;-62
2023/04/20 08:04:52;;;;;;;9.10;5.03;;;11.20;70.30;;;13.67;50.69;102093.19;5034005;28;20229;-62
2023/04/20 08:07:19;;;;;;;8.23;4.97;;;11.10;70.30;;;13.63;51.05;102094.47;5034122;28;20274;-61
2023/04/20 08:09:46;;;;;;;7.20;4.27;;;11.10;70.70;;;13.67;50.94;102087.91;5033369;28;20209;-59
2023/04/20 08:12:13;;;;;;;6.53;4.77;;;11.10;70.80;;;13.79;50.67;102086.56;5033610;28;20190;-62
2023/04/20 08:14:41;;;;;;;8.03;5.20;;;11.10;71.10;;;13.91;50.41;102087.94;5031643;28;20321;-63
2023/04/20 08:17:09;;;;;;;6.30;4.40;;;11.10;71.10;;;14.03;50.35;102086.63;5046578;28;20193;-60
2023/04/20 08:19:36;;;;;;;6.40;4.83;;;11.10;71.10;;;14.11;50.04;102094.59;5052483;28;20242;-62
2023/04/20 08:22:04;;;;;;;8.53;5.63;;;11.20;70.80;;;14.23;49.82;102088.81;5032853;28;20555;-57
2023/04/20 08:24:31;;;;;;;6.57;5.00;;;11.30;71.00;;;14.30;49.63;102099.59;5039856;28;20232;-57
2023/04/20 08:26:58;;;;;;;9.90;7.27;;;11.30;70.70;;;14.34;49.76;102095.63;5032474;28;20206;-59
2023/04/20 08:29:28;;;;;;;9.03;7.07;;;11.40;70.60;;;14.35;49.93;102097.28;5031435;28;20286;-59
2023/04/20 08:31:55;;;;;;;6.70;5.40;;;11.40;70.40;;;14.23;49.87;102098.56;5032151;28;20194;-59
2023/04/20 08:34:24;;;;;;;6.43;4.90;;;11.50;70.00;;;14.16;49.74;102098.41;5031783;28;20237;-60
2023/04/20 08:36:51;;;;;;;9.13;6.60;;;11.50;70.10;;;14.13;50.17;102109.31;5033356;28;20595;-60
2023/04/20 08:39:20;;;;;;;6.57;4.60;;;11.40;70.30;;;14.16;50.08;102102.88;5033330;28;20306;-61
2023/04/20 08:41:52;;;;;;;11.63;5.37;;;11.40;70.20;;;14.25;49.91;102107.19;5033101;28;20234;-59
2023/04/20 08:44:22;;;;;;;8.23;5.83;;;11.40;70.40;;;14.30;49.46;102104.91;5033398;28;20280;-58
2023/04/20 08:46:50;;;;;;;8.47;5.97;;;11.40;70.30;;;14.27;49.81;102102.53;5034671;28;20277;-58
2023/04/20 08:49:18;;;;;;;9.33;5.47;;;11.50;70.40;;;14.30;49.91;102099.59;5034369;28;20222;-65
2023/04/20 08:51:48;;;;;;;6.30;5.07;;;11.50;70.50;;;14.29;49.82;102105.84;5031746;28;20233;-59
2023/04/20 08:54:15;;;;;;;9.60;5.33;;;11.50;70.40;;;14.40;49.93;102105.56;5033458;28;20218;-59
2023/04/20 08:56:46;;;;;;;9.07;5.50;;;11.50;70.50;;;14.53;49.72;102102.41;5035806;28;20697;-59
2023/04/20 08:59:16;;;;;;;13.57;9.83;;;11.60;70.60;;;14.65;49.52;102109.84;5008660;28;20217;-61
2023/04/20 09:01:45;;;;;;;9.07;5.90;;;11.60;70.30;;;14.73;49.13;102116.97;5027859;28;20207;-62
2023/04/20 09:04:25;;;;;;;5.60;4.83;;;11.70;70.00;;;14.72;48.96;102110.84;5047215;28;20218;-61
2023/04/20 09:07:02;;;;;;;13.87;11.40;;;11.80;69.80;;;14.68;48.96;102106.88;5015952;28;20194;-62
2023/04/20 09:09:29;;;;;;;9.60;7.03;;;11.80;69.50;;;14.67;49.09;102107.03;5016845;28;20252;-60
2023/04/20 09:12:03;;;;;;;7.63;5.67;;;11.80;69.50;;;14.61;49.13;102105.06;5031590;28;20272;-59
2023/04/20 09:14:41;;;;;;;10.33;7.97;;;11.80;69.40;;;14.66;49.22;102108.03;5019421;28;20221;-60
2023/04/20 09:17:12;;;;;;;7.20;5.30;;;11.90;69.70;;;14.82;48.87;102111.50;5047594;28;20175;-61
2023/04/20 09:19:43;;;;;;;8.23;5.63;;;11.90;69.70;;;14.89;48.56;102116.94;5033051;28;20264;-59
2023/04/20 09:22:11;;;;;;;9.83;5.50;;;11.90;69.30;;;14.98;48.44;102112.44;5030830;28;20266;-57
2023/04/20 09:24:41;;;;;;;8.70;5.90;;;12.00;69.30;;;15.10;48.46;102116.38;5026322;28;20253;-59
2023/04/20 09:27:15;;;;;;;12.40;7.53;;;12.00;69.30;;;15.13;47.85;102124.00;5032708;28;20312;-60
2023/04/20 09:29:43;;;;;;;9.47;5.80;;;12.10;68.70;;;15.16;48.01;102136.94;5031821;28;20202;-61
2023/04/20 09:32:21;;;;;;;9.60;6.37;;;12.20;68.70;;;15.14;47.72;102133.63;5014480;28;20210;-61
2023/04/20 09:34:48;;;;;;;9.77;5.70;;;12.20;68.30;;;15.12;47.78;102143.59;5033416;28;20218;-60
2023/04/20 09:37:17;;;;;;;5.73;5.07;;;12.20;68.20;;;14.95;48.12;102132.19;5034013;28;20622;-62
2023/04/20 09:39:45;;;;;;;7.77;5.70;;;12.20;68.00;;;14.96;48.28;102128.53;5030408;28;20294;-59
2023/04/20 09:42:14;;;;;;;5.87;5.13;;;12.10;68.10;;;14.98;48.21;102134.50;5032018;28;20290;-61
2023/04/20 09:44:43;;;;;;;8.37;5.43;;;12.10;68.10;;;15.05;48.21;102129.34;5034119;28;20233;-61
2023/04/20 09:47:17;;;;;;;7.03;4.87;;;12.10;68.40;;;15.15;47.96;102129.97;5034978;28;20222;-60
2023/04/20 09:49:46;;;;;;;8.33;5.83;;;12.20;68.50;;;15.59;47.03;102128.53;5043603;28;20446;-58
2023/04/20 09:52:22;;;;;;;7.23;5.53;;;12.20;68.80;;;15.32;47.42;102129.75;5035257;28;20250;-59
2023/04/20 09:54:50;;;;;;;6.27;5.67;;;12.20;68.00;;;15.19;47.48;102121.50;5017778;28;20248;-60
2023/04/20 09:57:19;;;;;;;6.53;5.30;;;12.30;67.80;;;15.08;47.86;102134.31;5035585;28;20205;-59
2023/04/20 09:59:48;;;;;;;6.70;5.18;;;12.30;67.80;;;15.04;48.05;102122.38;5028079;28;20433;-58
2023/04/20 10:02:18;;;;;;;6.27;5.53;;;12.20;68.00;;;15.19;48.15;102121.50;5033721;28;20298;-61
2023/04/20 10:04:55;;;;;;;8.57;5.43;;;12.20;68.70;;;16.41;47.00;102111.06;5035335;28;20214;-59
2023/04/20 10:07:25;;;;;;;7.43;5.57;;;12.50;70.40;;;17.73;44.45;102104.03;5031859;28;20465;-60
2023/04/20 10:10:08;;;;;;;6.03;5.43;;;13.00;70.20;;;19.12;41.29;102097.84;5033737;28;20622;-60
2023/04/20 10:12:48;;;;;;;5.43;4.93;;;13.70;67.20;;;20.50;37.51;102103.63;5033302;28;20453;-60
2023/04/20 10:15:15;;;;;;;6.17;5.33;;;14.60;63.60;;;21.80;36.28;102090.94;5034579;28;20266;-64
2023/04/20 10:17:45;;;;;;;5.90;5.40;;;15.40;62.30;;;23.19;33.39;102093.09;5028778;28;20470;-61